Terminal Aerodrome Forecast
Issued by NWS Pittsburgh, PA

Current Version | Previous Version | Graphics & Text | Print | Product List | Glossary On
Versions: 1 2 3 4 5 6 7 8 9 10 11 12 13 14 15 16 17 18 19 20 21 22 23 24 25 26 27 28 29 30 31 32
000
FTUS41 KPBZ 050900 AAA
TAFPIT
TAF AMD
KPIT 050901Z 0509/0612 34015KT 2SM -SN BKN025
     FM051100 31010KT 6SM -SHSN BKN022
     FM051700 34008KT P6SM BKN025
     FM052300 32005KT P6SM FEW030=

USA.gov is the U.S. government's official web portal to all federal, state and local government web resources and services.